Skip Navigation Links Skip Navigation Links

Current Weather

John F Kennedy Intl, New York

For information only: do not use for flight planning or navigation.
Latest weather
Observation time Sunday, August 1, 2021 6:51 AM EDT
Local time Sunday, August 1, 2021 7:31 AM EDT
Flight conditions Visual Meteorological Conditions
Winds
Wind direction East-Southeast (110°)
Wind speed 5 mph
Visibility 10 mi.
Sky condition
Ceiling 19,000 ft. broken clouds
Cloud layer few clouds 3,000 ft.
Cloud layer broken clouds 19,000 ft.
Cloud layer broken clouds 25,000 ft.
Temperature 67°F
Dewpoint 63°F
Altimeter 29.95 in.Hg
Derived measurements
Relative humidity 87%
Density altitude 764 ft.
Sea-level pressure 29.95 in.Hg
Remarks
Automated weather observing station with precipitation discriminator.
METAR KJFK 011051Z 11004KT 10SM FEW030 BKN190 BKN250 19/17 A2995 RMK AO2 SLP141 T01940172

Settings

Location code

InnerDrive.Weather 4.0.6770.0 Release CLR 4.0.30319.42000
Copyright ©2018 Inner Drive Technology. All rights reserved. Portions Copyright ©1986-2018 David Braverman.

Find weather

Site navigation


Skip Navigation Links

Place info

Page info

PayPal - The safer, easier way to pay online!

Return home.

Copyright ©2021 Inner Drive Technology. Purveyors of fine, hand-crafted computer software. Page printed 2021-08-01T11:31:08 UTC.